sensor_id;sensor_type;location;lat;lon;timestamp;temperature;humidity
6964;DHT22;3522;50.856;7.278;2023-07-09T02:11:20;20.60;99.90
6964;DHT22;3522;50.856;7.278;2023-07-09T02:13:47;20.60;99.90
6964;DHT22;3522;50.856;7.278;2023-07-09T02:16:13;20.60;99.90
6964;DHT22;3522;50.856;7.278;2023-07-09T02:18:40;20.60;99.90
6964;DHT22;3522;50.856;7.278;2023-07-09T02:21:07;20.60;99.90
6964;DHT22;3522;50.856;7.278;2023-07-09T02:23:33;20.60;99.90
6964;DHT22;3522;50.856;7.278;2023-07-09T02:26:00;20.50;99.90
6964;DHT22;3522;50.856;7.278;2023-07-09T02:28:28;20.50;99.90
6964;DHT22;3522;50.856;7.278;2023-07-09T02:30:54;20.50;99.90
6964;DHT22;3522;50.856;7.278;2023-07-09T02:33:21;20.40;99.90
6964;DHT22;3522;50.856;7.278;2023-07-09T02:35:48;20.40;99.90
6964;DHT22;3522;50.856;7.278;2023-07-09T02:38:15;20.40;99.90
6964;DHT22;3522;50.856;7.278;2023-07-09T02:40:41;20.40;99.90
6964;DHT22;3522;50.856;7.278;2023-07-09T02:43:08;20.40;99.90
6964;DHT22;3522;50.856;7.278;2023-07-09T02:45:36;20.30;99.90
6964;DHT22;3522;50.856;7.278;2023-07-09T02:48:03;20.30;99.90
6964;DHT22;3522;50.856;7.278;2023-07-09T02:50:29;20.30;99.90
6964;DHT22;3522;50.856;7.278;2023-07-09T02:52:56;20.30;99.90
6964;DHT22;3522;50.856;7.278;2023-07-09T02:55:22;20.20;99.90
6964;DHT22;3522;50.856;7.278;2023-07-09T02:57:49;20.30;99.90
6964;DHT22;3522;50.856;7.278;2023-07-09T03:00:16;20.20;99.90
6964;DHT22;3522;50.856;7.278;2023-07-09T03:02:44;20.20;99.90
6964;DHT22;3522;50.856;7.278;2023-07-09T03:05:10;20.10;99.90
6964;DHT22;3522;50.856;7.278;2023-07-09T03:07:37;20.00;99.90
6964;DHT22;3522;50.856;7.278;2023-07-09T03:10:04;20.00;99.90
6964;DHT22;3522;50.856;7.278;2023-07-09T03:12:30;20.00;99.90
6964;DHT22;3522;50.856;7.278;2023-07-09T03:14:57;19.90;99.90
6964;DHT22;3522;50.856;7.278;2023-07-09T03:17:24;19.90;99.90
6964;DHT22;3522;50.856;7.278;2023-07-09T03:19:52;19.90;99.90
6964;DHT22;3522;50.856;7.278;2023-07-09T03:22:18;19.80;99.90
6964;DHT22;3522;50.856;7.278;2023-07-09T03:24:45;19.80;99.90
6964;DHT22;3522;50.856;7.278;2023-07-09T03:27:11;19.80;99.90
6964;DHT22;3522;50.856;7.278;2023-07-09T03:29:38;19.80;99.90
6964;DHT22;3522;50.856;7.278;2023-07-09T03:32:05;19.80;99.90
6964;DHT22;3522;50.856;7.278;2023-07-09T03:34:32;19.80;99.90
6964;DHT22;3522;50.856;7.278;2023-07-09T03:36:59;19.80;99.90
6964;DHT22;3522;50.856;7.278;2023-07-09T03:39:26;19.90;99.90
6964;DHT22;3522;50.856;7.278;2023-07-09T03:41:53;19.90;99.90
6964;DHT22;3522;50.856;7.278;2023-07-09T03:44:19;19.90;99.90
6964;DHT22;3522;50.856;7.278;2023-07-09T03:46:46;19.90;99.90
6964;DHT22;3522;50.856;7.278;2023-07-09T03:49:12;19.90;99.90
6964;DHT22;3522;50.856;7.278;2023-07-09T03:51:39;19.90;99.90
6964;DHT22;3522;50.856;7.278;2023-07-09T03:54:07;19.80;99.90
6964;DHT22;3522;50.856;7.278;2023-07-09T03:56:33;19.90;99.90
6964;DHT22;3522;50.856;7.278;2023-07-09T03:59:02;19.90;99.90
6964;DHT22;3522;50.856;7.278;2023-07-09T04:01:29;19.90;99.90
6964;DHT22;3522;50.856;7.278;2023-07-09T04:03:56;19.80;99.90
6964;DHT22;3522;50.856;7.278;2023-07-09T04:06:22;19.90;99.90
6964;DHT22;3522;50.856;7.278;2023-07-09T04:08:49;19.80;99.90
6964;DHT22;3522;50.856;7.278;2023-07-09T04:11:17;19.90;99.90
6964;DHT22;3522;50.856;7.278;2023-07-09T04:13:43;19.90;99.90
6964;DHT22;3522;50.856;7.278;2023-07-09T04:16:10;19.90;99.90
6964;DHT22;3522;50.856;7.278;2023-07-09T04:18:37;19.90;99.90
6964;DHT22;3522;50.856;7.278;2023-07-09T04:21:03;19.90;99.90
6964;DHT22;3522;50.856;7.278;2023-07-09T04:23:30;19.90;99.90
6964;DHT22;3522;50.856;7.278;2023-07-09T04:25:57;20.00;99.90
6964;DHT22;3522;50.856;7.278;2023-07-09T04:28:25;20.00;99.90
6964;DHT22;3522;50.856;7.278;2023-07-09T04:30:51;20.00;99.90
6964;DHT22;3522;50.856;7.278;2023-07-09T04:33:18;20.00;99.90
6964;DHT22;3522;50.856;7.278;2023-07-09T04:35:45;20.10;99.90
6964;DHT22;3522;50.856;7.278;2023-07-09T04:38:12;20.10;99.90
6964;DHT22;3522;50.856;7.278;2023-07-09T04:40:38;20.10;99.90
6964;DHT22;3522;50.856;7.278;2023-07-09T04:43:05;20.20;99.90
6964;DHT22;3522;50.856;7.278;2023-07-09T04:45:33;20.20;99.90
6964;DHT22;3522;50.856;7.278;2023-07-09T04:47:59;20.20;99.90
6964;DHT22;3522;50.856;7.278;2023-07-09T04:50:26;20.30;99.90
6964;DHT22;3522;50.856;7.278;2023-07-09T04:52:52;20.40;99.90
6964;DHT22;3522;50.856;7.278;2023-07-09T04:55:19;20.40;99.90
6964;DHT22;3522;50.856;7.278;2023-07-09T04:57:46;20.50;99.90
6964;DHT22;3522;50.856;7.278;2023-07-09T05:00:13;20.50;99.90
6964;DHT22;3522;50.856;7.278;2023-07-09T05:02:41;20.60;99.90
6964;DHT22;3522;50.856;7.278;2023-07-09T05:05:08;20.60;99.90
6964;DHT22;3522;50.856;7.278;2023-07-09T05:07:34;20.70;99.90
6964;DHT22;3522;50.856;7.278;2023-07-09T05:10:01;20.80;99.90
6964;DHT22;3522;50.856;7.278;2023-07-09T05:12:28;20.90;99.90
6964;DHT22;3522;50.856;7.278;2023-07-09T05:14:55;20.90;99.90
6964;DHT22;3522;50.856;7.278;2023-07-09T05:17:22;20.90;99.90
6964;DHT22;3522;50.856;7.278;2023-07-09T05:19:50;21.10;99.90
6964;DHT22;3522;50.856;7.278;2023-07-09T05:22:16;21.20;99.90
6964;DHT22;3522;50.856;7.278;2023-07-09T05:24:43;21.30;99.90
6964;DHT22;3522;50.856;7.278;2023-07-09T05:27:10;21.30;99.90
6964;DHT22;3522;50.856;7.278;2023-07-09T05:29:36;21.40;99.90
6964;DHT22;3522;50.856;7.278;2023-07-09T05:32:03;21.50;99.90
6964;DHT22;3522;50.856;7.278;2023-07-09T05:34:30;21.60;99.90
6964;DHT22;3522;50.856;7.278;2023-07-09T05:36:58;21.60;99.90
6964;DHT22;3522;50.856;7.278;2023-07-09T05:39:24;21.70;99.90
6964;DHT22;3522;50.856;7.278;2023-07-09T05:41:51;21.80;99.90
6964;DHT22;3522;50.856;7.278;2023-07-09T05:44:17;21.90;99.90
6964;DHT22;3522;50.856;7.278;2023-07-09T05:46:45;22.00;99.90
6964;DHT22;3522;50.856;7.278;2023-07-09T05:49:11;22.20;99.90
6964;DHT22;3522;50.856;7.278;2023-07-09T05:51:38;22.30;99.90
6964;DHT22;3522;50.856;7.278;2023-07-09T05:54:06;22.40;99.90
6964;DHT22;3522;50.856;7.278;2023-07-09T05:56:32;22.70;99.90
6964;DHT22;3522;50.856;7.278;2023-07-09T05:58:59;22.90;99.90
6964;DHT22;3522;50.856;7.278;2023-07-09T06:01:25;23.10;99.90
6964;DHT22;3522;50.856;7.278;2023-07-09T06:03:52;23.40;99.90
6964;DHT22;3522;50.856;7.278;2023-07-09T06:06:19;23.70;99.90
6964;DHT22;3522;50.856;7.278;2023-07-09T06:08:47;23.90;99.90
6964;DHT22;3522;50.856;7.278;2023-07-09T06:11:16;24.20;99.90
6964;DHT22;3522;50.856;7.278;2023-07-09T06:13:44;24.30;99.90
6964;DHT22;3522;50.856;7.278;2023-07-09T06:16:10;24.60;99.90
6964;DHT22;3522;50.856;7.278;2023-07-09T06:18:37;24.70;99.90
6964;DHT22;3522;50.856;7.278;2023-07-09T06:21:05;24.80;99.90
6964;DHT22;3522;50.856;7.278;2023-07-09T06:23:32;25.00;99.90
6964;DHT22;3522;50.856;7.278;2023-07-09T06:25:59;25.10;99.90
6964;DHT22;3522;50.856;7.278;2023-07-09T06:28:27;25.10;99.90
6964;DHT22;3522;50.856;7.278;2023-07-09T06:30:55;25.20;99.90
6964;DHT22;3522;50.856;7.278;2023-07-09T06:33:22;25.30;99.90
6964;DHT22;3522;50.856;7.278;2023-07-09T06:35:49;25.40;99.90
6964;DHT22;3522;50.856;7.278;2023-07-09T06:38:17;25.60;99.90
6964;DHT22;3522;50.856;7.278;2023-07-09T06:40:43;25.70;99.90
6964;DHT22;3522;50.856;7.278;2023-07-09T06:43:10;25.80;99.90
6964;DHT22;3522;50.856;7.278;2023-07-09T06:45:38;25.90;99.90
6964;DHT22;3522;50.856;7.278;2023-07-09T06:48:05;26.10;99.90
6964;DHT22;3522;50.856;7.278;2023-07-09T06:50:34;26.20;99.90
6964;DHT22;3522;50.856;7.278;2023-07-09T06:53:01;26.40;99.90
6964;DHT22;3522;50.856;7.278;2023-07-09T06:55:28;26.50;99.90
6964;DHT22;3522;50.856;7.278;2023-07-09T06:57:54;26.70;99.90
6964;DHT22;3522;50.856;7.278;2023-07-09T07:00:21;27.00;99.90
6964;DHT22;3522;50.856;7.278;2023-07-09T07:02:49;27.10;99.90
6964;DHT22;3522;50.856;7.278;2023-07-09T07:05:16;27.30;99.90
6964;DHT22;3522;50.856;7.278;2023-07-09T07:07:43;27.50;99.90
6964;DHT22;3522;50.856;7.278;2023-07-09T07:10:09;27.40;99.90
6964;DHT22;3522;50.856;7.278;2023-07-09T07:12:41;27.60;99.90
6964;DHT22;3522;50.856;7.278;2023-07-09T07:15:08;27.80;99.90
6964;DHT22;3522;50.856;7.278;2023-07-09T07:17:35;28.10;99.90
6964;DHT22;3522;50.856;7.278;2023-07-09T07:20:03;28.10;99.90
6964;DHT22;3522;50.856;7.278;2023-07-09T07:22:30;28.40;99.90
6964;DHT22;3522;50.856;7.278;2023-07-09T07:24:56;28.60;99.90
6964;DHT22;3522;50.856;7.278;2023-07-09T07:27:23;28.80;99.90
6964;DHT22;3522;50.856;7.278;2023-07-09T07:29:49;29.00;99.90
6964;DHT22;3522;50.856;7.278;2023-07-09T07:32:16;29.30;99.90
6964;DHT22;3522;50.856;7.278;2023-07-09T07:34:42;29.20;99.90
6964;DHT22;3522;50.856;7.278;2023-07-09T07:37:10;29.40;99.90
6964;DHT22;3522;50.856;7.278;2023-07-09T07:39:37;29.50;99.90
6964;DHT22;3522;50.856;7.278;2023-07-09T07:42:04;29.90;99.90
6964;DHT22;3522;50.856;7.278;2023-07-09T07:44:30;30.30;99.90
6964;DHT22;3522;50.856;7.278;2023-07-09T07:46:57;30.50;99.90
6964;DHT22;3522;50.856;7.278;2023-07-09T07:49:24;30.60;99.90
6964;DHT22;3522;50.856;7.278;2023-07-09T07:51:50;30.90;99.70
6964;DHT22;3522;50.856;7.278;2023-07-09T07:54:18;31.00;99.90
6964;DHT22;3522;50.856;7.278;2023-07-09T07:56:45;31.30;99.70
6964;DHT22;3522;50.856;7.278;2023-07-09T07:59:11;31.60;97.90
6964;DHT22;3522;50.856;7.278;2023-07-09T08:01:38;31.70;97.20
6964;DHT22;3522;50.856;7.278;2023-07-09T08:04:04;32.00;97.50
6964;DHT22;3522;50.856;7.278;2023-07-09T08:06:31;32.30;96.50
6964;DHT22;3522;50.856;7.278;2023-07-09T08:08:58;32.60;96.50
6964;DHT22;3522;50.856;7.278;2023-07-09T08:11:26;32.70;95.90
6964;DHT22;3522;50.856;7.278;2023-07-09T08:13:55;33.00;94.40
6964;DHT22;3522;50.856;7.278;2023-07-09T08:16:21;33.20;94.00
6964;DHT22;3522;50.856;7.278;2023-07-09T08:18:48;33.20;93.50
6964;DHT22;3522;50.856;7.278;2023-07-09T08:21:14;33.40;93.20
6964;DHT22;3522;50.856;7.278;2023-07-09T08:23:41;33.70;93.00
6964;DHT22;3522;50.856;7.278;2023-07-09T08:26:08;34.00;92.60
6964;DHT22;3522;50.856;7.278;2023-07-09T08:28:35;34.20;91.50
6964;DHT22;3522;50.856;7.278;2023-07-09T08:31:02;34.30;91.50
6964;DHT22;3522;50.856;7.278;2023-07-09T08:33:29;34.50;90.10
6964;DHT22;3522;50.856;7.278;2023-07-09T08:35:56;34.60;89.30
6964;DHT22;3522;50.856;7.278;2023-07-09T08:38:23;34.50;89.80
6964;DHT22;3522;50.856;7.278;2023-07-09T08:40:54;34.60;85.20
6964;DHT22;3522;50.856;7.278;2023-07-09T08:43:32;34.60;85.30
6964;DHT22;3522;50.856;7.278;2023-07-09T08:46:03;34.60;83.60
6964;DHT22;3522;50.856;7.278;2023-07-09T08:48:34;34.60;84.10
6964;DHT22;3522;50.856;7.278;2023-07-09T08:51:02;34.90;83.80
6964;DHT22;3522;50.856;7.278;2023-07-09T08:53:31;34.90;83.30
6964;DHT22;3522;50.856;7.278;2023-07-09T08:55:59;35.30;83.10
6964;DHT22;3522;50.856;7.278;2023-07-09T08:58:27;35.30;81.80
6964;DHT22;3522;50.856;7.278;2023-07-09T09:00:55;35.60;81.30
6964;DHT22;3522;50.856;7.278;2023-07-09T09:03:31;35.70;80.80
6964;DHT22;3522;50.856;7.278;2023-07-09T09:06:00;35.70;78.90
6964;DHT22;3522;50.856;7.278;2023-07-09T09:08:30;36.00;79.20
6964;DHT22;3522;50.856;7.278;2023-07-09T09:11:00;35.90;77.10
6964;DHT22;3522;50.856;7.278;2023-07-09T09:13:31;36.10;76.40
6964;DHT22;3522;50.856;7.278;2023-07-09T09:16:00;36.30;76.80
6964;DHT22;3522;50.856;7.278;2023-07-09T09:18:39;36.40;76.00
6964;DHT22;3522;50.856;7.278;2023-07-09T09:21:07;36.30;74.60
6964;DHT22;3522;50.856;7.278;2023-07-09T09:23:38;36.50;74.70
6964;DHT22;3522;50.856;7.278;2023-07-09T09:26:07;36.60;74.70
6964;DHT22;3522;50.856;7.278;2023-07-09T09:28:36;36.10;70.60
6964;DHT22;3522;50.856;7.278;2023-07-09T09:31:02;36.30;73.10
6964;DHT22;3522;50.856;7.278;2023-07-09T09:33:37;36.40;73.60
6964;DHT22;3522;50.856;7.278;2023-07-09T09:36:11;36.70;73.60
6964;DHT22;3522;50.856;7.278;2023-07-09T09:38:40;37.10;73.20
6964;DHT22;3522;50.856;7.278;2023-07-09T09:41:09;37.10;71.50
6964;DHT22;3522;50.856;7.278;2023-07-09T09:43:37;37.40;70.70
6964;DHT22;3522;50.856;7.278;2023-07-09T09:46:06;37.60;71.80
6964;DHT22;3522;50.856;7.278;2023-07-09T09:48:32;37.70;70.40
6964;DHT22;3522;50.856;7.278;2023-07-09T09:51:03;37.70;66.90
6964;DHT22;3522;50.856;7.278;2023-07-09T09:53:34;37.80;66.40
6964;DHT22;3522;50.856;7.278;2023-07-09T09:56:04;38.00;66.70
6964;DHT22;3522;50.856;7.278;2023-07-09T09:58:31;38.00;64.80
6964;DHT22;3522;50.856;7.278;2023-07-09T10:00:58;38.20;63.00
6964;DHT22;3522;50.856;7.278;2023-07-09T10:03:32;38.30;63.90
6964;DHT22;3522;50.856;7.278;2023-07-09T10:06:01;38.40;64.30
6964;DHT22;3522;50.856;7.278;2023-07-09T10:08:32;38.10;63.90
6964;DHT22;3522;50.856;7.278;2023-07-09T10:11:07;38.30;63.50
6964;DHT22;3522;50.856;7.278;2023-07-09T10:13:35;38.40;61.50
6964;DHT22;3522;50.856;7.278;2023-07-09T10:16:05;38.50;64.00
6964;DHT22;3522;50.856;7.278;2023-07-09T10:18:38;38.70;65.70
6964;DHT22;3522;50.856;7.278;2023-07-09T10:21:10;38.90;65.00
6964;DHT22;3522;50.856;7.278;2023-07-09T10:23:43;38.90;61.70
6964;DHT22;3522;50.856;7.278;2023-07-09T10:26:13;39.10;60.70
6964;DHT22;3522;50.856;7.278;2023-07-09T10:28:50;39.30;60.90
6964;DHT22;3522;50.856;7.278;2023-07-09T10:31:21;39.50;60.50
6964;DHT22;3522;50.856;7.278;2023-07-09T10:33:53;39.60;59.70
6964;DHT22;3522;50.856;7.278;2023-07-09T10:36:25;39.40;58.40
6964;DHT22;3522;50.856;7.278;2023-07-09T10:38:57;39.40;57.60
6964;DHT22;3522;50.856;7.278;2023-07-09T10:41:25;39.40;57.50
6964;DHT22;3522;50.856;7.278;2023-07-09T10:43:54;39.10;55.40
6964;DHT22;3522;50.856;7.278;2023-07-09T10:46:25;39.00;56.20
6964;DHT22;3522;50.856;7.278;2023-07-09T10:48:53;38.90;57.00
6964;DHT22;3522;50.856;7.278;2023-07-09T10:51:21;39.00;55.70
6964;DHT22;3522;50.856;7.278;2023-07-09T10:53:52;39.00;56.00
6964;DHT22;3522;50.856;7.278;2023-07-09T10:56:23;39.00;55.70
6964;DHT22;3522;50.856;7.278;2023-07-09T10:58:52;39.00;56.10
6964;DHT22;3522;50.856;7.278;2023-07-09T11:01:21;39.20;56.30
6964;DHT22;3522;50.856;7.278;2023-07-09T11:03:52;39.30;56.30
6964;DHT22;3522;50.856;7.278;2023-07-09T11:06:21;39.30;54.20
6964;DHT22;3522;50.856;7.278;2023-07-09T11:08:48;39.40;55.10
6964;DHT22;3522;50.856;7.278;2023-07-09T11:11:21;39.30;54.20
6964;DHT22;3522;50.856;7.278;2023-07-09T11:13:50;39.20;52.50
6964;DHT22;3522;50.856;7.278;2023-07-09T11:16:20;39.20;54.10
6964;DHT22;3522;50.856;7.278;2023-07-09T11:18:54;39.30;55.60
6964;DHT22;3522;50.856;7.278;2023-07-09T11:21:21;39.30;54.60
6964;DHT22;3522;50.856;7.278;2023-07-09T11:23:49;39.50;53.30
6964;DHT22;3522;50.856;7.278;2023-07-09T11:26:22;39.30;53.50
6964;DHT22;3522;50.856;7.278;2023-07-09T11:28:50;39.50;53.90
6964;DHT22;3522;50.856;7.278;2023-07-09T11:31:20;39.80;54.40
6964;DHT22;3522;50.856;7.278;2023-07-09T11:33:48;39.90;53.80
6964;DHT22;3522;50.856;7.278;2023-07-09T11:36:24;40.00;53.30
6964;DHT22;3522;50.856;7.278;2023-07-09T11:38:51;40.20;53.10
6964;DHT22;3522;50.856;7.278;2023-07-09T11:41:36;40.00;50.70
6964;DHT22;3522;50.856;7.278;2023-07-09T11:44:05;39.80;51.80
6964;DHT22;3522;50.856;7.278;2023-07-09T11:46:37;39.40;52.00
6964;DHT22;3522;50.856;7.278;2023-07-09T11:49:06;39.20;52.80
6964;DHT22;3522;50.856;7.278;2023-07-09T11:51:35;39.10;53.60
6964;DHT22;3522;50.856;7.278;2023-07-09T11:54:03;39.10;53.30
6964;DHT22;3522;50.856;7.278;2023-07-09T11:56:30;39.00;52.60
6964;DHT22;3522;50.856;7.278;2023-07-09T11:58:58;39.00;52.70
6964;DHT22;3522;50.856;7.278;2023-07-09T12:01:26;38.90;54.20
6964;DHT22;3522;50.856;7.278;2023-07-09T12:03:53;39.10;53.90
6964;DHT22;3522;50.856;7.278;2023-07-09T12:06:23;39.20;54.00
6964;DHT22;3522;50.856;7.278;2023-07-09T12:08:50;39.20;53.20
6964;DHT22;3522;50.856;7.278;2023-07-09T12:11:18;39.20;53.60
6964;DHT22;3522;50.856;7.278;2023-07-09T12:13:45;39.00;52.30
6964;DHT22;3522;50.856;7.278;2023-07-09T12:16:23;39.20;51.40
6964;DHT22;3522;50.856;7.278;2023-07-09T12:18:49;39.30;49.50
6964;DHT22;3522;50.856;7.278;2023-07-09T12:21:16;39.30;50.10
6964;DHT22;3522;50.856;7.278;2023-07-09T12:23:44;39.20;52.10
6964;DHT22;3522;50.856;7.278;2023-07-09T12:26:11;39.20;51.40
6964;DHT22;3522;50.856;7.278;2023-07-09T12:28:39;39.10;52.80
6964;DHT22;3522;50.856;7.278;2023-07-09T12:31:10;38.80;49.10
6964;DHT22;3522;50.856;7.278;2023-07-09T12:33:45;39.00;50.60
6964;DHT22;3522;50.856;7.278;2023-07-09T12:36:12;39.10;50.70
6964;DHT22;3522;50.856;7.278;2023-07-09T12:38:40;38.90;51.30
6964;DHT22;3522;50.856;7.278;2023-07-09T12:41:08;38.80;50.80
6964;DHT22;3522;50.856;7.278;2023-07-09T12:43:42;38.60;50.80
6964;DHT22;3522;50.856;7.278;2023-07-09T12:46:09;38.40;50.90
6964;DHT22;3522;50.856;7.278;2023-07-09T12:48:35;38.00;50.30
6964;DHT22;3522;50.856;7.278;2023-07-09T12:51:06;38.00;52.30
6964;DHT22;3522;50.856;7.278;2023-07-09T12:53:33;38.00;53.80
6964;DHT22;3522;50.856;7.278;2023-07-09T12:56:00;37.90;52.90
6964;DHT22;3522;50.856;7.278;2023-07-09T12:58:29;37.90;54.70
6964;DHT22;3522;50.856;7.278;2023-07-09T13:00:56;37.60;53.70
6964;DHT22;3522;50.856;7.278;2023-07-09T13:03:25;37.40;53.30
6964;DHT22;3522;50.856;7.278;2023-07-09T13:05:52;37.10;53.30
6964;DHT22;3522;50.856;7.278;2023-07-09T13:08:20;36.90;53.90
6964;DHT22;3522;50.856;7.278;2023-07-09T13:10:47;36.60;54.60
6964;DHT22;3522;50.856;7.278;2023-07-09T13:13:16;36.50;55.50
6964;DHT22;3522;50.856;7.278;2023-07-09T13:15:43;36.40;58.80
6964;DHT22;3522;50.856;7.278;2023-07-09T13:18:12;36.50;59.40
6964;DHT22;3522;50.856;7.278;2023-07-09T13:20:39;36.80;59.30
6964;DHT22;3522;50.856;7.278;2023-07-09T13:23:10;37.20;58.30
6964;DHT22;3522;50.856;7.278;2023-07-09T13:25:39;37.30;54.70
6964;DHT22;3522;50.856;7.278;2023-07-09T13:28:08;37.50;54.50
6964;DHT22;3522;50.856;7.278;2023-07-09T13:30:37;37.50;53.20
6964;DHT22;3522;50.856;7.278;2023-07-09T13:33:07;37.60;53.20
6964;DHT22;3522;50.856;7.278;2023-07-09T13:35:34;37.70;54.40
6964;DHT22;3522;50.856;7.278;2023-07-09T13:38:00;37.90;54.80
6964;DHT22;3522;50.856;7.278;2023-07-09T13:40:29;37.90;54.80
6964;DHT22;3522;50.856;7.278;2023-07-09T13:42:58;37.80;53.50
6964;DHT22;3522;50.856;7.278;2023-07-09T13:45:25;37.60;53.20
6964;DHT22;3522;50.856;7.278;2023-07-09T13:47:52;37.20;53.80
6964;DHT22;3522;50.856;7.278;2023-07-09T13:50:19;36.70;53.30
6964;DHT22;3522;50.856;7.278;2023-07-09T13:52:46;36.20;55.90
6964;DHT22;3522;50.856;7.278;2023-07-09T13:55:17;35.90;56.80
6964;DHT22;3522;50.856;7.278;2023-07-09T13:57:44;35.40;57.40
6964;DHT22;3522;50.856;7.278;2023-07-09T14:00:13;35.00;58.70
6964;DHT22;3522;50.856;7.278;2023-07-09T14:02:39;34.70;59.20
6964;DHT22;3522;50.856;7.278;2023-07-09T14:05:08;34.20;58.70
6964;DHT22;3522;50.856;7.278;2023-07-09T14:07:36;33.80;57.70
6964;DHT22;3522;50.856;7.278;2023-07-09T14:10:03;33.50;59.10
6964;DHT22;3522;50.856;7.278;2023-07-09T14:12:30;33.30;58.20
6964;DHT22;3522;50.856;7.278;2023-07-09T14:14:58;33.00;59.00
6964;DHT22;3522;50.856;7.278;2023-07-09T14:17:27;32.50;60.50
6964;DHT22;3522;50.856;7.278;2023-07-09T14:19:54;32.30;65.10
6964;DHT22;3522;50.856;7.278;2023-07-09T14:22:23;31.90;64.60
6964;DHT22;3522;50.856;7.278;2023-07-09T14:24:51;31.40;68.40
6964;DHT22;3522;50.856;7.278;2023-07-09T14:27:18;31.10;75.80
6964;DHT22;3522;50.856;7.278;2023-07-09T14:29:45;30.10;81.80
6964;DHT22;3522;50.856;7.278;2023-07-09T14:32:22;29.30;87.20
6964;DHT22;3522;50.856;7.278;2023-07-09T14:34:53;28.60;88.80
6964;DHT22;3522;50.856;7.278;2023-07-09T14:37:20;27.90;90.20
6964;DHT22;3522;50.856;7.278;2023-07-09T14:39:46;27.80;91.80
6964;DHT22;3522;50.856;7.278;2023-07-09T14:42:13;27.60;92.60
6964;DHT22;3522;50.856;7.278;2023-07-09T14:44:41;27.30;99.30
6964;DHT22;3522;50.856;7.278;2023-07-09T14:47:10;26.60;99.90
6964;DHT22;3522;50.856;7.278;2023-07-09T14:49:38;26.10;99.90
6964;DHT22;3522;50.856;7.278;2023-07-09T14:52:08;25.60;99.90
6964;DHT22;3522;50.856;7.278;2023-07-09T14:54:36;25.20;99.90
6964;DHT22;3522;50.856;7.278;2023-07-09T14:57:03;25.00;99.90
6964;DHT22;3522;50.856;7.278;2023-07-09T14:59:33;24.60;99.90
6964;DHT22;3522;50.856;7.278;2023-07-09T15:02:00;24.40;99.90
6964;DHT22;3522;50.856;7.278;2023-07-09T15:04:28;24.10;99.90
6964;DHT22;3522;50.856;7.278;2023-07-09T15:06:55;24.10;99.90
6964;DHT22;3522;50.856;7.278;2023-07-09T15:09:24;24.00;99.90
6964;DHT22;3522;50.856;7.278;2023-07-09T15:11:52;24.00;99.90
6964;DHT22;3522;50.856;7.278;2023-07-09T15:14:19;23.90;99.90
6964;DHT22;3522;50.856;7.278;2023-07-09T15:16:46;23.80;99.90
6964;DHT22;3522;50.856;7.278;2023-07-09T15:19:12;23.70;99.90
6964;DHT22;3522;50.856;7.278;2023-07-09T15:21:39;23.60;99.90
6964;DHT22;3522;50.856;7.278;2023-07-09T15:24:07;23.40;99.90
6964;DHT22;3522;50.856;7.278;2023-07-09T15:26:38;23.20;99.90
6964;DHT22;3522;50.856;7.278;2023-07-09T15:29:07;23.10;99.90
6964;DHT22;3522;50.856;7.278;2023-07-09T15:31:34;23.00;99.90
6964;DHT22;3522;50.856;7.278;2023-07-09T15:34:00;22.80;99.90
6964;DHT22;3522;50.856;7.278;2023-07-09T15:36:27;22.60;99.90
6964;DHT22;3522;50.856;7.278;2023-07-09T15:38:53;22.60;99.90
6964;DHT22;3522;50.856;7.278;2023-07-09T15:41:20;22.40;99.90
6964;DHT22;3522;50.856;7.278;2023-07-09T15:43:48;22.30;99.90
6964;DHT22;3522;50.856;7.278;2023-07-09T15:46:15;22.20;99.90
6964;DHT22;3522;50.856;7.278;2023-07-09T15:48:43;22.20;99.90
6964;DHT22;3522;50.856;7.278;2023-07-09T15:51:10;22.10;99.90
6964;DHT22;3522;50.856;7.278;2023-07-09T15:53:37;22.00;99.90
6964;DHT22;3522;50.856;7.278;2023-07-09T15:56:04;22.00;99.90
6964;DHT22;3522;50.856;7.278;2023-07-09T15:58:37;22.00;99.90
6964;DHT22;3522;50.856;7.278;2023-07-09T16:01:06;22.00;99.90
6964;DHT22;3522;50.856;7.278;2023-07-09T16:03:34;22.10;99.90
6964;DHT22;3522;50.856;7.278;2023-07-09T16:06:00;22.30;99.90
6964;DHT22;3522;50.856;7.278;2023-07-09T16:08:27;22.40;99.90
6964;DHT22;3522;50.856;7.278;2023-07-09T16:10:54;22.60;99.90
6964;DHT22;3522;50.856;7.278;2023-07-09T16:13:22;22.70;99.90
6964;DHT22;3522;50.856;7.278;2023-07-09T16:15:49;22.80;99.90
6964;DHT22;3522;50.856;7.278;2023-07-09T16:18:17;22.80;99.90
6964;DHT22;3522;50.856;7.278;2023-07-09T16:20:44;22.90;99.90
6964;DHT22;3522;50.856;7.278;2023-07-09T16:23:14;22.90;99.90
6964;DHT22;3522;50.856;7.278;2023-07-09T16:25:43;22.80;99.90
6964;DHT22;3522;50.856;7.278;2023-07-09T16:28:12;22.80;99.90
6964;DHT22;3522;50.856;7.278;2023-07-09T16:30:39;22.70;99.90
6964;DHT22;3522;50.856;7.278;2023-07-09T16:33:06;22.70;99.90
6964;DHT22;3522;50.856;7.278;2023-07-09T16:35:34;22.70;99.90
6964;DHT22;3522;50.856;7.278;2023-07-09T16:38:00;22.60;99.90
6964;DHT22;3522;50.856;7.278;2023-07-09T16:40:28;22.60;99.90
6964;DHT22;3522;50.856;7.278;2023-07-09T16:42:55;22.50;99.90
6964;DHT22;3522;50.856;7.278;2023-07-09T16:45:23;22.40;99.90
6964;DHT22;3522;50.856;7.278;2023-07-09T16:47:50;22.40;99.90
6964;DHT22;3522;50.856;7.278;2023-07-09T16:50:18;22.50;99.90
6964;DHT22;3522;50.856;7.278;2023-07-09T16:52:46;22.40;99.90
6964;DHT22;3522;50.856;7.278;2023-07-09T16:55:13;22.40;99.90
6964;DHT22;3522;50.856;7.278;2023-07-09T16:57:40;22.40;99.90
6964;DHT22;3522;50.856;7.278;2023-07-09T17:00:18;22.50;99.90
6964;DHT22;3522;50.856;7.278;2023-07-09T17:02:46;22.50;99.90
6964;DHT22;3522;50.856;7.278;2023-07-09T17:05:14;22.40;99.90
6964;DHT22;3522;50.856;7.278;2023-07-09T17:07:40;22.50;99.90
6964;DHT22;3522;50.856;7.278;2023-07-09T17:10:09;22.50;99.90
6964;DHT22;3522;50.856;7.278;2023-07-09T17:12:36;22.50;99.90
6964;DHT22;3522;50.856;7.278;2023-07-09T17:15:07;22.60;99.90
6964;DHT22;3522;50.856;7.278;2023-07-09T17:17:51;22.80;99.90
6964;DHT22;3522;50.856;7.278;2023-07-09T17:20:18;22.80;99.90
6964;DHT22;3522;50.856;7.278;2023-07-09T17:22:45;22.90;99.90
6964;DHT22;3522;50.856;7.278;2023-07-09T17:25:18;23.10;99.90
6964;DHT22;3522;50.856;7.278;2023-07-09T17:27:47;23.10;99.90
6964;DHT22;3522;50.856;7.278;2023-07-09T17:30:14;23.20;99.90
6964;DHT22;3522;50.856;7.278;2023-07-09T17:32:41;23.30;99.90
6964;DHT22;3522;50.856;7.278;2023-07-09T17:35:08;23.40;99.90
6964;DHT22;3522;50.856;7.278;2023-07-09T17:37:34;23.60;99.90
6964;DHT22;3522;50.856;7.278;2023-07-09T17:40:01;23.80;99.90
6964;DHT22;3522;50.856;7.278;2023-07-09T17:42:29;23.80;99.90
6964;DHT22;3522;50.856;7.278;2023-07-09T17:44:55;23.80;99.90
6964;DHT22;3522;50.856;7.278;2023-07-09T17:47:22;23.80;99.90
6964;DHT22;3522;50.856;7.278;2023-07-09T17:49:49;23.80;99.90
6964;DHT22;3522;50.856;7.278;2023-07-09T17:52:16;23.80;99.90
6964;DHT22;3522;50.856;7.278;2023-07-09T17:54:43;23.80;99.90
6964;DHT22;3522;50.856;7.278;2023-07-09T17:57:10;23.80;99.90
6964;DHT22;3522;50.856;7.278;2023-07-09T17:59:40;23.80;99.90
6964;DHT22;3522;50.856;7.278;2023-07-09T18:02:09;23.70;99.90
6964;DHT22;3522;50.856;7.278;2023-07-09T18:04:37;23.60;99.90
6964;DHT22;3522;50.856;7.278;2023-07-09T18:07:08;23.60;99.90
6964;DHT22;3522;50.856;7.278;2023-07-09T18:09:38;23.50;99.90
6964;DHT22;3522;50.856;7.278;2023-07-09T18:12:07;23.50;99.90
6964;DHT22;3522;50.856;7.278;2023-07-09T18:14:36;23.50;99.90
6964;DHT22;3522;50.856;7.278;2023-07-09T18:17:08;23.40;99.90